Time;durP1;ratioP1;P1;durP2;ratioP2;P2;SDS_P1;SDS_P2;PMS_P1;PMS_P2;Temp;Humidity;BMP_temperature;BMP_pressure;BME280_temperature;BME280_humidity;BME280_pressure;Samples;Min_cycle;Max_cycle;Signal;HPM_P1;HPM_P2
2022/07/20 00:01:39;;;;;;;3.07;2.77;;;27.20;46.40;;;;;;5041482;28;20446;-81
2022/07/20 00:04:07;;;;;;;3.07;2.77;;;27.20;46.40;;;;;;5059551;28;20413;-80
2022/07/20 00:06:41;;;;;;;3.73;3.40;;;27.20;46.40;;;;;;5040800;28;20414;-80
2022/07/20 00:12:17;;;;;;;3.60;3.03;;;27.20;46.40;;;;;;4978205;29;20410;-80
2022/07/20 00:15:07;;;;;;;3.83;3.43;;;27.20;46.40;;;;;;4978790;28;20407;-80
2022/07/20 00:17:35;;;;;;;3.37;3.03;;;27.20;46.50;;;;;;5029668;28;20453;-80
2022/07/20 00:20:05;;;;;;;3.20;2.90;;;27.20;46.50;;;;;;5058027;28;20413;-80
2022/07/20 00:22:32;;;;;;;3.40;3.10;;;27.20;46.50;;;;;;5024797;28;20766;-80
2022/07/20 00:24:59;;;;;;;4.13;3.73;;;27.20;46.50;;;;;;5039987;28;20417;-80
2022/07/20 00:27:26;;;;;;;3.17;2.90;;;27.20;46.50;;;;;;5041298;28;20402;-80
2022/07/20 00:29:57;;;;;;;3.80;3.50;;;27.20;46.50;;;;;;5040011;28;20446;-80
2022/07/20 00:32:26;;;;;;;3.67;3.37;;;27.20;46.50;;;;;;5057138;28;20418;-80
2022/07/20 00:35:17;;;;;;;4.70;3.70;;;27.20;46.50;;;;;;5057005;28;20707;-80
2022/07/20 00:37:46;;;;;;;3.97;3.67;;;27.20;46.50;;;;;;5022747;28;20426;-79
2022/07/20 00:40:16;;;;;;;3.50;3.20;;;27.20;46.50;;;;;;5040215;28;20482;-80
2022/07/20 00:42:46;;;;;;;3.63;3.33;;;27.20;46.50;;;;;;5022558;28;20458;-80
2022/07/20 00:45:15;;;;;;;5.47;3.30;;;27.20;46.50;;;;;;5056229;28;20407;-81
2022/07/20 00:47:48;;;;;;;6.00;3.73;;;27.20;46.50;;;;;;5053574;28;20407;-80
2022/07/20 00:50:18;;;;;;;3.40;3.20;;;27.20;46.50;;;;;;5037490;28;20433;-80
2022/07/20 00:52:46;;;;;;;3.70;3.37;;;27.20;46.50;;;;;;5021151;28;20438;-81
2022/07/20 00:55:13;;;;;;;4.30;3.90;;;27.20;46.50;;;;;;5054077;28;20410;-80
2022/07/20 00:57:41;;;;;;;4.87;3.80;;;27.20;46.50;;;;;;5037599;28;20449;-79
2022/07/20 01:00:11;;;;;;;5.30;3.33;;;27.20;46.50;;;;;;5055494;28;20430;-79
2022/07/20 01:02:38;;;;;;;3.83;3.43;;;27.20;46.50;;;;;;5038491;28;20457;-79
2022/07/20 01:05:13;;;;;;;3.30;3.00;;;27.20;46.50;;;;;;5055798;28;20414;-80
2022/07/20 01:07:48;;;;;;;3.80;3.33;;;27.20;46.60;;;;;;5039810;28;20402;-80
2022/07/20 01:10:18;;;;;;;3.33;3.03;;;27.20;46.50;;;;;;5038407;28;20432;-80
2022/07/20 01:12:48;;;;;;;4.40;4.00;;;27.20;46.50;;;;;;5039140;28;20411;-79
2022/07/20 01:15:15;;;;;;;4.67;3.43;;;27.20;46.50;;;;;;5038948;28;20418;-80
2022/07/20 01:17:45;;;;;;;3.27;2.83;;;27.20;46.50;;;;;;5039655;28;20474;-80
2022/07/20 01:20:18;;;;;;;4.37;3.97;;;27.20;46.50;;;;;;5039987;28;20442;-80
2022/07/20 01:22:47;;;;;;;3.77;3.40;;;27.20;46.60;;;;;;5039352;28;20446;-79
2022/07/20 01:25:15;;;;;;;4.10;3.70;;;27.20;46.50;;;;;;5023111;28;20411;-79
2022/07/20 01:27:43;;;;;;;3.87;3.57;;;27.20;47.10;;;;;;5038718;28;20493;-79
2022/07/20 01:30:18;;;;;;;3.60;3.30;;;27.20;46.50;;;;;;5055716;28;20407;-79
2022/07/20 01:32:46;;;;;;;4.20;3.90;;;27.20;46.50;;;;;;5056203;28;20413;-80
2022/07/20 01:35:15;;;;;;;4.20;3.50;;;27.20;46.50;;;;;;5056060;28;20410;-79
2022/07/20 01:37:42;;;;;;;4.40;3.50;;;27.20;46.50;;;;;;5038790;28;20426;-79
2022/07/20 01:43:42;;;;;;;3.90;3.60;;;27.20;46.50;;;;;;5056396;28;20394;-79
2022/07/20 01:46:09;;;;;;;3.90;3.50;;;27.10;46.50;;;;;;5038745;28;20398;-79
2022/07/20 01:48:37;;;;;;;3.70;3.40;;;27.20;46.50;;;;;;5038455;28;20406;-79
2022/07/20 01:51:07;;;;;;;3.93;3.50;;;27.20;46.50;;;;;;5056177;28;20402;-79
2022/07/20 01:53:34;;;;;;;4.77;3.57;;;27.20;46.50;;;;;;5019390;28;20423;-80
2022/07/20 01:56:00;;;;;;;4.17;3.77;;;27.20;46.50;;;;;;5034587;28;20407;-80
2022/07/20 01:58:26;;;;;;;4.20;3.80;;;27.20;46.50;;;;;;5035023;28;20407;-81
2022/07/20 02:00:53;;;;;;;4.93;4.43;;;27.20;46.50;;;;;;5032604;28;20461;-80
2022/07/20 02:03:19;;;;;;;4.83;4.33;;;27.20;46.50;;;;;;5051081;28;20407;-81
2022/07/20 02:05:46;;;;;;;5.20;4.30;;;27.20;46.50;;;;;;5050886;28;20406;-80
2022/07/20 02:08:12;;;;;;;4.23;3.83;;;27.20;47.10;;;;;;5033831;28;20439;-80
2022/07/20 02:10:38;;;;;;;4.00;3.70;;;27.20;46.50;;;;;;5033898;28;20406;-81
2022/07/20 02:13:04;;;;;;;4.67;4.23;;;27.20;46.50;;;;;;5034229;28;20449;-80
2022/07/20 02:18:16;;;;;;;3.93;3.47;;;27.20;46.50;;;;;;5051952;28;20728;-80
2022/07/20 02:20:42;;;;;;;8.10;4.20;;;27.20;46.50;;;;;;5034748;28;20421;-80
2022/07/20 02:23:11;;;;;;;4.80;3.63;;;27.20;46.50;;;;;;5034727;28;20403;-80
2022/07/20 02:25:38;;;;;;;5.70;4.17;;;27.20;46.40;;;;;;5052545;28;20460;-80
2022/07/20 02:28:06;;;;;;;3.70;3.40;;;27.20;46.40;;;;;;5035198;28;20709;-80
2022/07/20 02:30:32;;;;;;;4.00;3.60;;;27.20;46.40;;;;;;5034718;28;20453;-80
2022/07/20 02:33:00;;;;;;;4.07;3.37;;;27.20;46.50;;;;;;5034804;28;20434;-80
2022/07/20 02:35:27;;;;;;;4.70;4.30;;;27.20;46.40;;;;;;5034239;28;20422;-80
2022/07/20 02:37:54;;;;;;;3.97;3.60;;;27.20;46.40;;;;;;5035043;28;20426;-80
2022/07/20 02:40:20;;;;;;;4.27;3.87;;;27.20;46.40;;;;;;5034868;28;20438;-81
2022/07/20 02:42:46;;;;;;;5.33;4.43;;;27.20;46.40;;;;;;5052277;28;20450;-80
2022/07/20 02:45:13;;;;;;;4.83;3.60;;;27.20;47.00;;;;;;5034372;28;20410;-80
2022/07/20 02:47:46;;;;;;;4.03;3.73;;;27.20;46.40;;;;;;5018664;28;20584;-80
2022/07/20 02:50:13;;;;;;;5.00;3.77;;;27.20;46.40;;;;;;5034726;28;20407;-80
2022/07/20 02:52:40;;;;;;;4.23;3.83;;;27.20;46.40;;;;;;5034499;28;20863;-80
2022/07/20 02:55:08;;;;;;;4.33;3.93;;;27.20;46.40;;;;;;5036633;28;20795;-80
2022/07/20 02:57:37;;;;;;;3.93;3.53;;;27.20;46.40;;;;;;5037737;28;20422;-80
2022/07/20 03:00:12;;;;;;;6.13;5.63;;;27.20;46.40;;;;;;5037628;28;20418;-80
2022/07/20 03:02:42;;;;;;;4.73;4.33;;;27.20;46.40;;;;;;5037547;28;20442;-80
2022/07/20 03:05:11;;;;;;;4.07;3.67;;;27.20;46.40;;;;;;5054762;28;20447;-80
2022/07/20 03:07:43;;;;;;;5.30;3.80;;;27.20;46.40;;;;;;5037493;28;20903;-80
2022/07/20 03:10:11;;;;;;;4.70;3.70;;;27.20;46.40;;;;;;5036919;28;20417;-80
2022/07/20 03:12:41;;;;;;;5.63;4.17;;;27.20;46.40;;;;;;5054845;28;20817;-80
2022/07/20 03:15:08;;;;;;;4.13;3.73;;;27.30;46.40;;;;;;5041036;28;20422;-80
2022/07/20 03:17:51;;;;;;;4.40;3.77;;;27.20;46.40;;;;;;5041336;28;20426;-80
2022/07/20 03:20:31;;;;;;;3.67;3.37;;;27.20;46.40;;;;;;5041904;28;20391;-80
2022/07/20 03:23:00;;;;;;;5.30;4.33;;;27.20;46.40;;;;;;5058788;28;20477;-79
2022/07/20 03:25:27;;;;;;;4.63;4.00;;;27.20;46.40;;;;;;5056802;28;20414;-79
2022/07/20 03:28:04;;;;;;;4.27;3.87;;;27.20;46.40;;;;;;5059099;28;20433;-79
2022/07/20 03:30:35;;;;;;;4.40;3.90;;;27.20;46.40;;;;;;5040899;28;20417;-80
2022/07/20 03:33:04;;;;;;;5.00;4.60;;;27.20;46.50;;;;;;5042141;28;20425;-80
2022/07/20 03:35:36;;;;;;;4.53;4.13;;;27.20;46.40;;;;;;5058379;28;20406;-80
2022/07/20 03:38:13;;;;;;;4.00;3.60;;;27.20;46.40;;;;;;5040866;28;20422;-80
2022/07/20 03:40:47;;;;;;;4.70;3.70;;;27.20;46.40;;;;;;5041063;28;20417;-79
2022/07/20 03:43:21;;;;;;;7.90;5.17;;;27.20;46.40;;;;;;5041147;28;20429;-80
2022/07/20 03:45:48;;;;;;;4.10;3.80;;;27.20;46.40;;;;;;5039364;28;20485;-80
2022/07/20 03:48:14;;;;;;;5.17;4.30;;;27.20;46.40;;;;;;5039887;28;20504;-80
2022/07/20 03:50:46;;;;;;;4.17;3.87;;;27.20;46.40;;;;;;5057194;28;20390;-80
2022/07/20 03:53:13;;;;;;;4.30;3.87;;;27.20;46.40;;;;;;5039599;28;20421;-80
2022/07/20 03:55:45;;;;;;;4.60;4.13;;;27.20;46.40;;;;;;5039199;28;20415;-80
2022/07/20 03:58:13;;;;;;;5.20;4.53;;;27.20;46.30;;;;;;5038977;28;20452;-80
2022/07/20 04:00:40;;;;;;;4.40;4.00;;;27.20;46.40;;;;;;5039264;28;20417;-80
2022/07/20 04:03:07;;;;;;;4.03;3.73;;;27.20;46.30;;;;;;5039646;28;20426;-80
2022/07/20 04:05:33;;;;;;;4.27;3.93;;;27.20;46.30;;;;;;5038932;28;20423;-81
2022/07/20 04:08:00;;;;;;;5.23;4.50;;;27.20;46.30;;;;;;5039631;28;20489;-81
2022/07/20 04:10:26;;;;;;;4.90;4.40;;;27.20;46.30;;;;;;5056405;28;20413;-81
2022/07/20 04:13:04;;;;;;;4.50;4.10;;;27.20;46.30;;;;;;5039041;28;20429;-80
2022/07/20 04:15:31;;;;;;;5.20;4.20;;;27.20;47.00;;;;;;5039108;28;20434;-81
2022/07/20 04:18:05;;;;;;;4.00;3.70;;;27.20;46.30;;;;;;5039422;28;20417;-80
2022/07/20 04:27:01;;;;;;;4.87;4.43;;;27.20;46.30;;;;;;5056485;28;20446;-80
2022/07/20 04:29:33;;;;;;;4.20;3.80;;;27.20;46.30;;;;;;5038955;28;20429;-83
2022/07/20 04:32:01;;;;;;;4.70;4.30;;;27.20;46.40;;;;;;5039799;28;20414;-82
2022/07/20 04:34:45;;;;;;;4.87;3.73;;;27.20;46.40;;;;;;5038542;28;20439;-79
2022/07/20 04:40:10;;;;;;;4.60;4.10;;;27.20;46.30;;;;;;5028045;28;20418;-82
2022/07/20 04:43:23;;;;;;;8.80;4.97;;;27.20;46.40;;;;;;5039141;28;20509;-81
2022/07/20 04:46:16;;;;;;;5.00;4.10;;;27.20;46.30;;;;;;5039110;28;20418;-81
2022/07/20 04:48:47;;;;;;;6.20;4.20;;;27.20;46.40;;;;;;5037859;28;20495;-80
2022/07/20 04:51:13;;;;;;;5.20;4.63;;;27.20;46.40;;;;;;5036955;28;20403;-80
2022/07/20 04:53:40;;;;;;;5.23;4.33;;;27.20;46.40;;;;;;5056181;28;20411;-81
2022/07/20 04:56:09;;;;;;;7.47;4.50;;;27.20;46.40;;;;;;5038538;28;20437;-80
2022/07/20 04:58:38;;;;;;;7.50;4.20;;;27.20;46.40;;;;;;5039329;28;20422;-81
2022/07/20 05:07:47;;;;;;;7.37;4.70;;;27.20;46.30;;;;;;4996071;28;20434;-81
2022/07/20 05:16:51;;;;;;;5.33;4.30;;;27.20;46.40;;;;;;4938026;29;21050;-81
2022/07/20 05:19:21;;;;;;;4.33;3.63;;;27.20;46.40;;;;;;4922713;29;20424;-82
2022/07/20 05:22:11;;;;;;;6.80;4.77;;;27.20;46.40;;;;;;4923058;29;20499;-81
2022/07/20 05:24:38;;;;;;;5.60;4.40;;;27.20;46.40;;;;;;4938018;29;20420;-81
2022/07/20 05:27:05;;;;;;;4.80;4.40;;;27.30;46.40;;;;;;4921438;29;20412;-81
2022/07/20 05:29:34;;;;;;;4.23;3.80;;;27.30;46.40;;;;;;4937877;29;20420;-81
2022/07/20 05:32:07;;;;;;;5.70;4.00;;;27.20;46.30;;;;;;4921986;29;20416;-82
2022/07/20 05:34:40;;;;;;;4.23;3.77;;;27.30;46.40;;;;;;4937996;29;20445;-81
2022/07/20 05:37:08;;;;;;;6.27;4.37;;;27.20;46.30;;;;;;4921974;29;20424;-81
2022/07/20 05:39:41;;;;;;;4.77;4.27;;;27.30;46.40;;;;;;4921837;29;20415;-81
2022/07/20 05:42:14;;;;;;;6.37;4.60;;;27.30;46.40;;;;;;4938107;29;20448;-81
2022/07/20 05:44:50;;;;;;;4.40;4.00;;;27.30;46.30;;;;;;4975352;28;20417;-81
2022/07/20 05:47:18;;;;;;;4.70;4.30;;;27.30;46.30;;;;;;5006335;28;20437;-81
2022/07/20 05:49:47;;;;;;;5.30;4.37;;;27.30;46.40;;;;;;5056519;28;20417;-81
2022/07/20 05:52:14;;;;;;;4.43;3.83;;;27.30;46.30;;;;;;5056799;28;20387;-81
2022/07/20 05:54:41;;;;;;;4.93;4.37;;;27.30;46.30;;;;;;5023317;28;20716;-81
2022/07/20 05:57:11;;;;;;;4.27;3.87;;;27.30;46.30;;;;;;5023165;28;20430;-80
2022/07/20 05:59:45;;;;;;;6.90;4.57;;;27.30;46.30;;;;;;5056709;28;20502;-81
2022/07/20 06:02:13;;;;;;;4.63;4.23;;;27.30;46.30;;;;;;5022696;28;20485;-82
2022/07/20 06:04:45;;;;;;;5.47;4.70;;;27.30;46.30;;;;;;5038199;28;20548;-81
2022/07/20 06:07:14;;;;;;;6.90;4.37;;;27.40;46.40;;;;;;5056703;28;20465;-81
2022/07/20 06:09:42;;;;;;;4.80;3.87;;;27.40;46.40;;;;;;5036223;28;20442;-81
2022/07/20 06:12:08;;;;;;;9.73;5.20;;;27.40;46.30;;;;;;5039582;28;20399;-82
2022/07/20 06:14:45;;;;;;;6.07;4.37;;;27.40;46.30;;;;;;5052003;28;20502;-82
2022/07/20 06:17:41;;;;;;;4.90;4.10;;;27.40;46.30;;;;;;5074636;28;20455;-82
2022/07/20 06:20:15;;;;;;;5.63;5.10;;;27.40;46.30;;;;;;5066858;28;20414;-82
2022/07/20 06:22:46;;;;;;;5.23;4.50;;;27.30;46.30;;;;;;5038780;28;20847;-82
2022/07/20 06:25:13;;;;;;;4.23;3.87;;;27.30;46.30;;;;;;5017611;28;20415;-81
2022/07/20 06:27:40;;;;;;;5.57;4.57;;;27.30;46.30;;;;;;5038078;28;20445;-82
2022/07/20 06:30:16;;;;;;;5.00;4.50;;;27.30;46.30;;;;;;5037512;28;20410;-81
2022/07/20 06:32:48;;;;;;;4.37;3.90;;;27.40;46.30;;;;;;5020983;28;20426;-81
2022/07/20 06:35:29;;;;;;;5.17;4.47;;;27.30;46.30;;;;;;5039014;28;20413;-81
2022/07/20 06:38:02;;;;;;;4.80;4.10;;;27.30;46.30;;;;;;5074633;28;20467;-81
2022/07/20 06:47:04;;;;;;;6.40;4.63;;;27.30;46.30;;;;;;4956089;28;20391;-81
2022/07/20 06:49:33;;;;;;;7.30;4.80;;;27.30;46.30;;;;;;4955432;29;20411;-81
2022/07/20 06:51:59;;;;;;;3.90;3.60;;;27.30;46.40;;;;;;4971835;29;20422;-81
2022/07/20 06:54:26;;;;;;;4.87;4.37;;;27.30;46.40;;;;;;4959636;29;20422;-81
2022/07/20 06:56:52;;;;;;;4.90;4.40;;;27.30;46.30;;;;;;4959331;29;20407;-82
2022/07/20 06:59:19;;;;;;;4.73;4.10;;;27.30;46.30;;;;;;4959249;29;20418;-82
2022/07/20 07:01:48;;;;;;;5.40;4.90;;;27.30;46.30;;;;;;4975782;29;20441;-81
2022/07/20 07:04:26;;;;;;;5.50;3.83;;;27.30;46.90;;;;;;4976266;29;20433;-80
2022/07/20 07:06:54;;;;;;;4.97;4.47;;;27.30;46.30;;;;;;4975972;29;20418;-81
2022/07/20 07:09:29;;;;;;;5.10;4.07;;;27.30;46.40;;;;;;4960449;29;20482;-80
2022/07/20 07:11:57;;;;;;;4.27;3.93;;;27.30;46.40;;;;;;4959738;29;20422;-81
2022/07/20 07:14:26;;;;;;;8.13;4.60;;;27.30;46.40;;;;;;4975948;29;20429;-81
2022/07/20 07:16:56;;;;;;;5.57;5.07;;;27.30;46.30;;;;;;4965263;28;20441;-81
2022/07/20 07:19:23;;;;;;;5.40;4.47;;;27.30;46.30;;;;;;4983569;28;20403;-81
2022/07/20 07:21:56;;;;;;;5.30;3.90;;;27.30;46.30;;;;;;5064898;28;20448;-81
2022/07/20 07:24:24;;;;;;;4.90;4.27;;;27.30;46.30;;;;;;5031143;28;20486;-81
2022/07/20 07:26:55;;;;;;;4.30;3.90;;;27.30;46.40;;;;;;5051275;28;20453;-81
2022/07/20 07:29:26;;;;;;;6.43;3.93;;;27.30;46.40;;;;;;5046987;28;20406;-81
2022/07/20 07:31:58;;;;;;;6.90;4.40;;;27.30;46.40;;;;;;5073962;28;20424;-82
2022/07/20 07:34:30;;;;;;;5.80;5.17;;;27.30;46.40;;;;;;5056301;28;20432;-81
2022/07/20 07:36:56;;;;;;;4.20;3.80;;;27.30;46.40;;;;;;5049124;28;20444;-81
2022/07/20 07:39:22;;;;;;;5.57;3.87;;;27.40;46.40;;;;;;5048105;28;20418;-81
2022/07/20 07:41:48;;;;;;;6.80;4.63;;;27.40;46.40;;;;;;5056551;28;20496;-80
2022/07/20 07:44:14;;;;;;;5.30;4.30;;;27.40;46.40;;;;;;5040162;28;20402;-81
2022/07/20 07:50:17;;;;;;;5.93;3.80;;;27.40;46.40;;;;;;5063007;28;20408;-81
2022/07/20 07:52:43;;;;;;;5.20;4.47;;;27.30;46.40;;;;;;5054934;28;20421;-81
2022/07/20 07:55:16;;;;;;;4.53;4.03;;;27.40;46.50;;;;;;5055084;28;20675;-81
2022/07/20 07:57:47;;;;;;;4.33;3.97;;;27.40;46.50;;;;;;5049091;28;20448;-81
2022/07/20 08:00:13;;;;;;;4.83;3.87;;;27.40;46.50;;;;;;5057333;28;20435;-81
2022/07/20 08:02:43;;;;;;;4.90;4.40;;;27.40;46.50;;;;;;5077496;28;20484;-81
2022/07/20 08:05:10;;;;;;;4.73;3.70;;;27.40;46.50;;;;;;5077569;28;20412;-81
2022/07/20 08:07:45;;;;;;;3.90;3.60;;;27.40;46.50;;;;;;5045033;28;20424;-82
2022/07/20 08:10:20;;;;;;;4.03;3.63;;;27.40;46.50;;;;;;5079203;28;20461;-82
2022/07/20 08:12:47;;;;;;;4.17;3.77;;;27.40;46.50;;;;;;5059050;28;20418;-82
2022/07/20 08:15:20;;;;;;;4.20;3.80;;;27.40;46.60;;;;;;5044626;28;20421;-81
2022/07/20 08:17:48;;;;;;;4.30;3.90;;;27.40;46.60;;;;;;5060510;28;20432;-82
2022/07/20 08:20:21;;;;;;;4.93;4.20;;;27.40;46.60;;;;;;5061514;28;20417;-81
2022/07/20 08:22:52;;;;;;;4.77;3.70;;;27.40;46.60;;;;;;5060495;28;20462;-81
2022/07/20 08:25:20;;;;;;;3.87;3.47;;;27.40;46.60;;;;;;5043958;28;20417;-80
2022/07/20 08:52:02;;;;;;;;;;;;;;;;;;;;;
2022/07/20 08:54:34;;;;;;;4.70;4.30;;;27.40;46.80;;;;;;4701153;30;20945;-85
2022/07/20 08:57:42;;;;;;;;;;;;;;;;;;;;;
2022/07/20 09:04:11;;;;;;;4.00;3.63;;;27.40;46.80;;;;;;4685968;30;20494;-82
2022/07/20 09:06:52;;;;;;;4.00;3.60;;;27.40;46.90;;;;;;4672938;30;20413;-82
2022/07/20 09:13:19;;;;;;;4.80;3.77;;;27.40;47.20;;;;;;4772210;30;20411;-84
2022/07/20 09:16:20;;;;;;;4.33;4.03;;;27.40;47.30;;;;;;4773071;30;20428;-85
2022/07/20 09:18:58;;;;;;;5.77;3.37;;;27.40;47.20;;;;;;4827619;29;20426;-82
2022/07/20 09:47:13;;;;;;;;;;;;;;;;;;;;;
2022/07/20 10:06:58;;;;;;;3.43;3.13;;;27.40;47.30;;;;;;4863965;29;20427;-81
2022/07/20 10:09:32;;;;;;;3.73;3.33;;;27.40;47.30;;;;;;4902508;29;20405;-83
2022/07/20 10:12:03;;;;;;;3.93;3.63;;;27.50;47.30;;;;;;4903689;29;20403;-81
2022/07/20 10:14:34;;;;;;;3.27;3.00;;;27.50;47.20;;;;;;4918034;29;20408;-82
2022/07/20 10:17:16;;;;;;;3.20;2.80;;;27.50;47.40;;;;;;4907267;29;20443;-82
2022/07/20 10:27:38;;;;;;;;;;;;;;;;;;;;;
2022/07/20 10:30:37;;;;;;;3.50;3.20;;;27.50;47.10;;;;;;4911270;29;20401;-80
2022/07/20 10:36:43;;;;;;;2.97;2.77;;;27.50;47.10;;;;;;4900481;29;20510;-81
2022/07/20 10:39:43;;;;;;;4.50;3.63;;;27.50;47.20;;;;;;4900520;29;20445;-82
2022/07/20 10:49:10;;;;;;;;;;;;;;;;;;;;;
2022/07/20 10:51:45;;;;;;;3.40;3.10;;;27.50;47.10;;;;;;4895993;29;20464;-81
2022/07/20 10:54:49;;;;;;;4.90;3.77;;;27.50;47.10;;;;;;4885600;29;20417;-81
2022/07/20 10:57:19;;;;;;;3.50;3.20;;;27.50;47.00;;;;;;4900367;29;20394;-82
2022/07/20 11:00:14;;;;;;;3.93;3.20;;;27.50;47.00;;;;;;4914552;29;20430;-81
2022/07/20 11:06:29;;;;;;;3.00;2.80;;;27.50;47.00;;;;;;4930327;28;20515;-81
2022/07/20 11:09:01;;;;;;;2.77;2.30;;;27.50;47.00;;;;;;4997177;28;20479;-81
2022/07/20 11:11:39;;;;;;;3.10;2.80;;;27.50;47.10;;;;;;4997263;28;20415;-81
2022/07/20 11:14:42;;;;;;;3.90;3.03;;;27.50;47.10;;;;;;5050802;28;20448;-80
2022/07/20 11:17:35;;;;;;;;;;;;;;;;;;;;;
2022/07/20 11:23:50;;;;;;;4.03;3.10;;;27.30;46.80;;;;;;4975737;28;20446;-80
2022/07/20 11:26:21;;;;;;;3.60;3.30;;;27.50;46.90;;;;;;4960072;29;20378;-81
2022/07/20 11:29:24;;;;;;;;;;;;;;;;;;;;;
2022/07/20 11:31:57;;;;;;;6.80;2.97;;;27.50;46.90;;;;;;4927819;29;20409;-81
2022/07/20 11:34:42;;;;;;;3.87;3.57;;;27.60;47.00;;;;;;4959400;29;20406;-81
2022/07/20 11:47:32;;;;;;;3.03;2.73;;;27.50;46.80;;;;;;4884799;29;20402;-81
2022/07/20 11:50:14;;;;;;;3.13;2.80;;;27.50;46.90;;;;;;4872766;29;20414;-81
2022/07/20 11:56:31;;;;;;;3.03;2.80;;;27.50;46.80;;;;;;4940948;29;20395;-81
2022/07/20 11:59:06;;;;;;;3.13;2.83;;;27.60;47.50;;;;;;4940820;29;20396;-81
2022/07/20 12:01:43;;;;;;;3.93;3.53;;;27.60;46.80;;;;;;4910890;29;20459;-82
2022/07/20 12:04:24;;;;;;;;;;;;;;;;;;;;;
2022/07/20 12:06:58;;;;;;;3.20;2.90;;;27.30;46.60;;;;;;4925326;29;20443;-81
2022/07/20 12:09:36;;;;;;;3.10;2.80;;;27.50;46.80;;;;;;4925369;29;20432;-81
2022/07/20 12:12:44;;;;;;;3.17;2.73;;;27.60;46.80;;;;;;4925515;29;20415;-81
2022/07/20 12:15:01;;;;;;;3.67;3.37;;;27.60;46.80;;;;;;4915357;29;20740;-82
2022/07/20 12:17:32;;;;;;;3.27;3.07;;;27.60;46.90;;;;;;4922631;29;20446;-82
2022/07/20 12:20:10;;;;;;;2.90;2.60;;;27.80;46.90;;;;;;4944253;29;20439;-82
2022/07/20 12:23:02;;;;;;;3.03;2.80;;;27.60;46.80;;;;;;4946274;28;20473;-82
2022/07/20 12:25:54;;;;;;;;;;;;;;;;;;;;;
2022/07/20 12:28:37;;;;;;;3.93;3.13;;;27.50;46.70;;;;;;4982887;28;20448;-82
2022/07/20 12:31:16;;;;;;;2.97;2.63;;;27.60;46.70;;;;;;4966837;28;20440;-83
2022/07/20 12:34:13;;;;;;;3.37;2.63;;;27.60;46.70;;;;;;4980727;28;20475;-81
2022/07/20 12:40:00;;;;;;;3.07;2.83;;;27.60;46.70;;;;;;4991422;28;20404;-82
2022/07/20 12:55:27;;;;;;;3.00;2.70;;;27.60;46.70;;;;;;4921521;29;20428;-82
2022/07/20 12:58:42;;;;;;;;;;;;;;;;;;;;;
2022/07/20 13:01:07;;;;;;;3.23;2.93;;;27.60;46.70;;;;;;4919757;29;20940;-83
2022/07/20 13:03:40;;;;;;;3.13;2.93;;;27.60;46.60;;;;;;4921679;29;20413;-82
2022/07/20 13:06:12;;;;;;;2.93;2.53;;;27.60;46.60;;;;;;4921750;29;20413;-82
2022/07/20 13:08:44;;;;;;;3.70;3.40;;;27.60;46.60;;;;;;4920784;29;20409;-81
2022/07/20 13:11:37;;;;;;;3.30;3.00;;;27.60;46.60;;;;;;4902087;29;20911;-81
2022/07/20 13:14:23;;;;;;;3.07;2.77;;;27.60;46.60;;;;;;4916936;29;20426;-82
2022/07/20 13:16:59;;;;;;;3.37;3.07;;;27.60;46.50;;;;;;4901521;29;20413;-83
2022/07/20 13:19:48;;;;;;;3.43;3.13;;;27.60;46.50;;;;;;4916016;29;20425;-83
2022/07/20 13:25:26;;;;;;;2.90;2.70;;;27.60;46.50;;;;;;4893866;29;20387;-82
2022/07/20 13:28:03;;;;;;;2.83;2.53;;;27.60;46.50;;;;;;4895974;29;20419;-82
2022/07/20 13:33:59;;;;;;;;;;;;;;;;;;;;;
2022/07/20 13:36:28;;;;;;;3.00;2.70;;;27.70;46.50;;;;;;4884162;29;20454;-83
2022/07/20 13:39:22;;;;;;;;;;;;;;;;;;;;;
2022/07/20 13:41:56;;;;;;;2.60;2.40;;;27.70;46.50;;;;;;4863389;29;20570;-82
2022/07/20 13:44:24;;;;;;;3.27;2.97;;;27.70;46.50;;;;;;4879659;29;20427;-82
2022/07/20 13:47:32;;;;;;;5.23;3.43;;;27.70;46.50;;;;;;4864334;29;20422;-82
2022/07/20 13:50:30;;;;;;;3.20;2.90;;;27.70;46.50;;;;;;4849238;29;20399;-81
2022/07/20 14:13:46;;;;;;;7.93;3.20;;;27.70;46.80;;;;;;4882591;29;20385;-83
2022/07/20 14:23:29;;;;;;;3.70;3.20;;;27.80;46.80;;;;;;4809579;30;20536;-82
2022/07/20 14:26:22;;;;;;;;;;;;;;;;;;;;;
2022/07/20 14:29:03;;;;;;;3.87;3.47;;;27.80;46.70;;;;;;4781738;30;20442;-81
2022/07/20 14:35:38;;;;;;;3.60;3.23;;;27.80;46.60;;;;;;4792198;30;20449;-81
2022/07/20 14:51:26;;;;;;;3.37;3.07;;;27.70;46.50;;;;;;4738499;30;20416;-81
2022/07/20 14:54:01;;;;;;;3.20;2.90;;;27.70;46.50;;;;;;4797239;30;20407;-81
2022/07/20 15:06:44;;;;;;;3.20;2.90;;;27.70;46.40;;;;;;4789821;30;20402;-81
2022/07/20 15:09:30;;;;;;;3.87;3.57;;;27.80;46.50;;;;;;4790180;30;20447;-80
2022/07/20 15:12:37;;;;;;;3.60;3.30;;;27.80;46.50;;;;;;4790267;30;20427;-81
2022/07/20 15:18:20;;;;;;;3.90;3.60;;;27.80;46.50;;;;;;4824753;29;20421;-81
2022/07/20 15:20:51;;;;;;;3.77;3.37;;;27.80;46.40;;;;;;4839029;29;20428;-81
2022/07/20 15:26:50;;;;;;;4.13;3.00;;;27.80;46.40;;;;;;4808570;30;20452;-81
2022/07/20 15:29:21;;;;;;;3.73;3.00;;;27.80;46.40;;;;;;4808604;29;20415;-81
2022/07/20 15:31:55;;;;;;;3.60;3.30;;;27.80;46.30;;;;;;4809122;29;20536;-80
2022/07/20 15:34:35;;;;;;;3.70;3.40;;;27.80;46.30;;;;;;4793461;30;20515;-81
2022/07/20 15:37:10;;;;;;;3.90;3.20;;;27.70;46.30;;;;;;4837767;29;20416;-81
2022/07/20 15:39:56;;;;;;;4.10;3.73;;;27.80;46.30;;;;;;4844419;29;20488;-82
2022/07/20 15:42:48;;;;;;;6.63;3.33;;;27.80;46.30;;;;;;4859490;29;20454;-81
2022/07/20 15:45:16;;;;;;;4.00;3.63;;;27.80;46.30;;;;;;4881271;29;20439;-81
2022/07/20 15:48:05;;;;;;;3.40;3.10;;;27.80;46.30;;;;;;4881643;29;20513;-82
2022/07/20 15:50:36;;;;;;;3.77;3.40;;;27.80;46.30;;;;;;4847916;29;20432;-82
2022/07/20 15:53:05;;;;;;;3.50;3.20;;;27.80;46.30;;;;;;4864615;29;20434;-81
2022/07/20 15:55:34;;;;;;;3.50;3.20;;;27.90;46.30;;;;;;4881261;29;20451;-81
2022/07/20 15:58:02;;;;;;;3.20;2.90;;;27.80;46.20;;;;;;4866542;29;20446;-81
2022/07/20 16:00:30;;;;;;;3.83;3.53;;;27.90;46.30;;;;;;4865971;29;20465;-82
2022/07/20 16:03:04;;;;;;;3.70;3.30;;;27.90;46.30;;;;;;4881457;29;20792;-81
2022/07/20 16:05:34;;;;;;;4.00;3.60;;;27.90;46.30;;;;;;4880529;29;20438;-81
2022/07/20 16:08:02;;;;;;;3.20;2.90;;;27.90;46.30;;;;;;4881326;29;20454;-81
2022/07/20 16:10:32;;;;;;;3.60;3.30;;;27.80;46.20;;;;;;4909772;29;20417;-81
2022/07/20 16:13:00;;;;;;;3.73;3.50;;;27.90;46.90;;;;;;4901842;29;20445;-82
2022/07/20 16:15:44;;;;;;;3.63;3.33;;;27.90;46.30;;;;;;4902650;29;20431;-81
2022/07/20 16:18:19;;;;;;;4.23;3.87;;;27.90;46.30;;;;;;4910049;29;20457;-81
2022/07/20 16:20:57;;;;;;;4.23;2.97;;;27.80;46.20;;;;;;4903113;29;20404;-81
2022/07/20 16:29:58;;;;;;;3.53;3.10;;;27.90;46.30;;;;;;4866084;29;20387;-80
2022/07/20 16:32:46;;;;;;;3.43;3.13;;;27.80;46.30;;;;;;4866058;29;20419;-81
2022/07/20 16:35:19;;;;;;;4.00;3.67;;;27.80;46.30;;;;;;4912411;29;20468;-81
2022/07/20 16:37:57;;;;;;;5.03;3.37;;;27.90;46.40;;;;;;4893169;29;20404;-80
2022/07/20 16:41:00;;;;;;;3.53;3.23;;;27.80;46.30;;;;;;4907485;29;20406;-80
2022/07/20 16:43:49;;;;;;;3.97;3.20;;;27.80;46.30;;;;;;4897031;29;20455;-81
2022/07/20 16:46:25;;;;;;;3.70;3.40;;;27.90;46.40;;;;;;4918580;29;20424;-82
2022/07/20 16:52:22;;;;;;;3.20;2.77;;;27.90;46.40;;;;;;4922361;29;20417;-81
2022/07/20 16:54:56;;;;;;;4.60;3.20;;;27.90;46.40;;;;;;4920607;29;20492;-81
2022/07/20 16:57:47;;;;;;;4.57;3.40;;;27.80;46.40;;;;;;4921409;29;20435;-81
2022/07/20 17:00:50;;;;;;;3.43;3.13;;;27.90;46.40;;;;;;4921413;29;20404;-80
2022/07/20 17:06:44;;;;;;;3.40;3.10;;;27.80;46.40;;;;;;4920529;29;20425;-81
2022/07/20 17:09:23;;;;;;;2.70;2.50;;;27.80;46.40;;;;;;4920478;29;20411;-81
2022/07/20 17:18:25;;;;;;;3.03;2.73;;;27.90;46.50;;;;;;4976345;28;20406;-82
2022/07/20 17:20:55;;;;;;;3.33;3.00;;;27.90;46.50;;;;;;4977314;29;20494;-80
2022/07/20 17:23:27;;;;;;;3.73;3.37;;;27.80;46.40;;;;;;4946727;29;20473;-81
2022/07/20 17:25:59;;;;;;;3.80;3.50;;;27.90;46.50;;;;;;4978006;29;20414;-80
2022/07/20 17:28:37;;;;;;;3.53;3.23;;;27.90;46.50;;;;;;4962673;29;20433;-81
2022/07/20 17:31:15;;;;;;;3.40;3.10;;;27.90;46.50;;;;;;4976366;29;20410;-80
2022/07/20 17:33:59;;;;;;;3.50;3.20;;;27.90;46.50;;;;;;4961124;29;20490;-81
2022/07/20 17:36:28;;;;;;;3.67;2.97;;;27.90;46.50;;;;;;4962364;29;20872;-82
2022/07/20 17:39:03;;;;;;;3.03;2.73;;;27.90;46.50;;;;;;4980496;28;20421;-82
2022/07/20 17:41:46;;;;;;;3.67;3.03;;;27.90;46.50;;;;;;5016458;28;20454;-81
2022/07/20 17:44:15;;;;;;;3.60;3.30;;;27.90;46.50;;;;;;4999866;28;20409;-81
2022/07/20 17:49:39;;;;;;;3.60;3.30;;;27.90;46.50;;;;;;5016038;28;20478;-80
2022/07/20 17:52:11;;;;;;;3.27;2.97;;;27.90;46.50;;;;;;5000206;28;20423;-82
2022/07/20 17:54:44;;;;;;;3.47;3.17;;;27.90;46.50;;;;;;5054390;28;20444;-81
2022/07/20 17:57:42;;;;;;;3.80;3.50;;;27.90;46.50;;;;;;5034624;28;20443;-80
2022/07/20 18:00:36;;;;;;;3.27;2.97;;;28.00;46.60;;;;;;5055803;28;20423;-80
2022/07/20 18:03:26;;;;;;;2.83;2.60;;;27.90;46.50;;;;;;5054114;28;20462;-80